ムルマンスク の空港の天気 - METARとTAF

ムルマンスク空港 ( ULMM / MMK ) - ロシア ムルマンスク
飛行場実況気象(Metar)
観測時間10/16 10:30 MSK (10/16 07:30 UTC)
風向・風速南 1m/s
視程10km以上
天気現象
全天の4割程度の雲 雲底高度 400m
気温-1℃
湿度86%
気圧1019hPa
METARULMM 160730Z 18001MPS 9999 SCT013CB M01/M03 Q1019 R31/290053 NOSIG RMK QFE757
過去の天気等 Google飛行場航空写真 Wunderground天気予報

過去48時間のMETAR

飛行場予報(TAF)
発表時間: 10/16 07:57 MSK (10/16 04:57 UTC)
予報対象時間: 16日9時 MSK ~ 17日9時 MSK
風向・風速南 3m/s
視程10km以上
全天の8割程度の雲 雲底高度 340m
16日9時 MSK ~ 16日21時 MSK に一時的に
風向・風速南西 3m/s
視程3100m
天気現象弱いしゅう雪雨 もや
全天の8割程度の積乱雲 雲底高度 340m
16日21時 MSK から
風向・風速西南西 3m/s
視程3100m
天気現象もや
全天の8割程度の雲 雲底高度 340m
16日21時 MSK ~ 17日9時 MSK に一時的に
風向・風速西 3m/s
視程300m
天気現象氷霧
全天を覆う雲 鉛直視程 60m
TAF ULMM 160457Z 1606/1706 19003MPS 9999 BKN011
TEMPO 1606/1618 22003MPS 3100 -SHSNRA BR BKN011CB
FM161800 25003MPS 3100 BR BKN011
TEMPO 1618/1706 27003MPS 0300 FZFG VV002